Time;durP1;ratioP1;P1;durP2;ratioP2;P2;SDS_P1;SDS_P2;PMS_P1;PMS_P2;Temp;Humidity;BMP_temperature;BMP_pressure;BME280_temperature;BME280_humidity;BME280_pressure;Samples;Min_cycle;Max_cycle;Signal;HPM_P1;HPM_P2
2022/06/29 00:01:18;;;;;;;9.03;7.17;;;22.50;90.70;;;;;;4986134;28;20018;-72
2022/06/29 00:03:45;;;;;;;8.23;7.23;;;22.50;91.10;;;;;;4985463;28;20023;-73
2022/06/29 00:06:11;;;;;;;8.65;7.30;;;22.60;91.50;;;;;;4968741;28;20022;-72
2022/06/29 00:08:37;;;;;;;7.93;7.13;;;22.60;91.40;;;;;;4985933;28;20045;-72
2022/06/29 00:11:03;;;;;;;7.93;6.80;;;22.60;91.70;;;;;;4985827;28;20352;-72
2022/06/29 00:13:29;;;;;;;7.97;7.18;;;22.60;91.70;;;;;;4985720;28;20026;-73
2022/06/29 00:15:54;;;;;;;8.30;7.33;;;22.60;91.30;;;;;;4995056;28;20253;-72
2022/06/29 00:18:20;;;;;;;9.67;7.90;;;22.60;91.40;;;;;;5004427;28;20025;-73
2022/06/29 00:20:46;;;;;;;9.40;7.53;;;22.60;92.10;;;;;;5005248;28;20023;-73
2022/06/29 00:23:11;;;;;;;12.07;7.47;;;22.50;91.30;;;;;;5004802;28;20037;-72
2022/06/29 00:25:37;;;;;;;8.83;7.20;;;22.50;91.90;;;;;;5003943;28;20038;-72
2022/06/29 00:28:03;;;;;;;9.37;7.57;;;22.60;92.10;;;;;;5004956;28;20026;-72
2022/06/29 00:30:29;;;;;;;9.37;7.50;;;22.50;92.10;;;;;;5005209;28;20030;-72
2022/06/29 00:32:54;;;;;;;8.85;7.72;;;22.50;92.40;;;;;;5004416;28;20281;-72
2022/06/29 00:35:20;;;;;;;10.57;7.10;;;22.50;91.70;;;;;;5003766;28;20317;-72
2022/06/29 00:37:46;;;;;;;8.80;7.67;;;22.50;92.00;;;;;;5004728;28;20022;-72
2022/06/29 00:40:12;;;;;;;8.60;7.53;;;22.50;92.30;;;;;;5004856;28;20461;-73
2022/06/29 00:42:38;;;;;;;8.15;7.10;;;22.50;92.70;;;;;;5004661;28;20064;-72
2022/06/29 00:45:04;;;;;;;9.73;7.53;;;22.50;92.70;;;;;;5004495;28;20026;-72
2022/06/29 00:47:30;;;;;;;8.55;7.22;;;22.50;92.30;;;;;;5004660;28;20033;-72
2022/06/29 00:49:56;;;;;;;8.40;7.50;;;22.50;92.10;;;;;;5002944;28;20027;-72
2022/06/29 00:52:25;;;;;;;10.00;7.57;;;22.40;92.20;;;;;;5004497;28;20038;-72
2022/06/29 00:55:06;;;;;;;8.50;7.60;;;22.40;92.50;;;;;;5001872;28;20025;-72
2022/06/29 00:57:33;;;;;;;8.88;7.63;;;22.40;92.60;;;;;;5003962;28;20026;-72
2022/06/29 00:59:59;;;;;;;8.63;7.65;;;22.40;92.70;;;;;;5003552;28;20341;-72
2022/06/29 01:02:32;;;;;;;;;;;22.40;92.70;;;;;;5002822;28;20026;-72
2022/06/29 01:04:57;;;;;;;9.90;8.23;;;22.30;92.30;;;;;;5003234;28;20115;-72
2022/06/29 01:07:26;;;;;;;9.45;7.57;;;22.30;92.30;;;;;;5004156;28;20041;-72
2022/06/29 01:09:51;;;;;;;9.02;8.13;;;22.30;92.60;;;;;;5002973;28;20097;-72
2022/06/29 01:12:17;;;;;;;9.75;7.47;;;22.20;92.70;;;;;;5003135;28;20053;-72
2022/06/29 01:14:45;;;;;;;9.55;7.63;;;22.20;92.70;;;;;;5002905;28;20324;-73
2022/06/29 01:17:11;;;;;;;12.68;8.25;;;22.20;93.00;;;;;;5002959;28;20029;-72
2022/06/29 01:19:37;;;;;;;10.68;7.72;;;22.20;93.00;;;;;;5003993;28;20190;-72
2022/06/29 01:22:14;;;;;;;9.32;7.82;;;22.10;92.90;;;;;;5003023;28;20235;-73
2022/06/29 01:24:40;;;;;;;9.90;8.07;;;22.10;93.50;;;;;;5001538;28;20092;-73
2022/06/29 01:27:06;;;;;;;9.50;7.85;;;22.10;93.30;;;;;;5002967;28;20048;-73
2022/06/29 01:29:32;;;;;;;8.43;7.53;;;22.10;93.20;;;;;;5003226;28;20337;-73
2022/06/29 01:31:58;;;;;;;8.93;8.05;;;22.10;93.30;;;;;;5002865;28;20022;-73
2022/06/29 01:34:24;;;;;;;10.63;8.43;;;22.10;93.30;;;;;;5003437;28;20025;-74
2022/06/29 01:36:50;;;;;;;10.35;9.25;;;22.10;93.90;;;;;;5001917;28;20011;-72
2022/06/29 01:39:16;;;;;;;10.30;8.02;;;22.10;93.80;;;;;;5002650;28;20086;-73
2022/06/29 01:41:42;;;;;;;9.27;7.67;;;22.10;94.00;;;;;;5002364;28;20014;-73
2022/06/29 01:44:08;;;;;;;9.07;7.97;;;22.10;94.20;;;;;;5003402;28;20026;-72
2022/06/29 01:46:34;;;;;;;9.83;8.33;;;22.00;94.30;;;;;;5003521;28;20034;-73
2022/06/29 01:49:00;;;;;;;10.60;9.20;;;22.00;93.90;;;;;;5002154;28;20041;-72
2022/06/29 01:51:25;;;;;;;13.93;8.80;;;22.00;94.20;;;;;;5002380;28;20060;-73
2022/06/29 01:53:51;;;;;;;9.73;8.33;;;22.00;94.20;;;;;;5001921;28;20054;-72
2022/06/29 01:56:17;;;;;;;9.67;8.60;;;22.00;94.30;;;;;;5003317;28;20249;-73
2022/06/29 01:58:43;;;;;;;9.87;8.47;;;22.00;94.40;;;;;;5001939;28;20028;-72
2022/06/29 02:01:09;;;;;;;11.10;9.30;;;22.00;94.10;;;;;;5003250;28;20273;-72
2022/06/29 02:03:35;;;;;;;10.90;8.80;;;21.90;94.20;;;;;;5001830;28;20042;-73
2022/06/29 02:06:02;;;;;;;11.95;8.65;;;21.90;94.30;;;;;;5001038;28;20026;-73
2022/06/29 02:08:28;;;;;;;9.10;8.13;;;21.90;94.40;;;;;;5002162;28;20137;-72
2022/06/29 02:10:54;;;;;;;10.27;9.00;;;21.90;94.50;;;;;;5001104;28;20029;-73
2022/06/29 02:13:20;;;;;;;13.15;8.95;;;21.80;94.20;;;;;;5002620;28;20089;-74
2022/06/29 02:15:46;;;;;;;10.63;9.10;;;21.90;94.60;;;;;;5001714;28;20221;-74
2022/06/29 02:18:12;;;;;;;10.23;9.13;;;21.80;94.60;;;;;;5002882;28;20029;-74
2022/06/29 02:20:37;;;;;;;9.53;8.40;;;21.80;94.90;;;;;;5001905;28;20018;-74
2022/06/29 02:23:03;;;;;;;10.23;8.40;;;21.80;94.80;;;;;;5001671;28;20360;-74
2022/06/29 02:25:29;;;;;;;10.30;9.13;;;21.80;94.90;;;;;;5001828;28;20105;-74
2022/06/29 02:27:55;;;;;;;12.13;8.63;;;21.80;94.80;;;;;;5002893;28;20030;-73
2022/06/29 02:34:43;;;;;;;11.53;9.03;;;21.80;94.80;;;;;;5002565;28;20025;-73
2022/06/29 02:35:50;;;;;;;10.52;8.60;;;21.80;94.70;;;;;;5002761;28;20029;-73
2022/06/29 02:38:16;;;;;;;10.27;9.17;;;21.80;94.60;;;;;;5002615;28;20030;-73
2022/06/29 02:40:44;;;;;;;11.55;9.57;;;21.80;95.00;;;;;;5002570;28;20226;-73
2022/06/29 02:43:10;;;;;;;10.93;8.93;;;21.80;95.10;;;;;;5002453;28;20030;-73
2022/06/29 02:45:36;;;;;;;12.43;9.82;;;21.80;95.20;;;;;;5001276;28;20089;-73
2022/06/29 02:48:01;;;;;;;10.10;9.10;;;21.80;95.00;;;;;;5001488;28;20053;-73
2022/06/29 02:50:27;;;;;;;10.97;9.13;;;21.80;95.20;;;;;;5000178;28;20029;-73
2022/06/29 02:52:53;;;;;;;12.35;8.75;;;21.70;94.90;;;;;;5001276;28;20022;-73
2022/06/29 02:55:19;;;;;;;8.90;7.97;;;21.70;95.20;;;;;;5002598;28;20068;-73
2022/06/29 02:57:44;;;;;;;10.63;8.97;;;21.70;95.10;;;;;;5001311;28;20026;-73
2022/06/29 03:00:12;;;;;;;10.97;9.47;;;21.70;95.20;;;;;;5002542;28;20026;-72
2022/06/29 03:02:38;;;;;;;10.20;9.10;;;21.70;95.00;;;;;;4994108;28;20033;-72
2022/06/29 03:05:04;;;;;;;10.90;9.10;;;21.70;94.60;;;;;;4981538;28;20054;-72
2022/06/29 03:07:29;;;;;;;10.98;8.70;;;21.60;95.00;;;;;;4993641;28;20359;-72
2022/06/29 03:09:55;;;;;;;11.63;9.57;;;21.60;95.20;;;;;;5002395;28;20034;-73
2022/06/29 03:12:21;;;;;;;10.73;8.97;;;21.60;95.10;;;;;;5002185;28;20066;-72
2022/06/29 03:14:46;;;;;;;11.57;9.97;;;21.60;95.00;;;;;;5002017;28;20030;-72
2022/06/29 03:17:12;;;;;;;12.10;9.10;;;21.60;95.30;;;;;;5000889;28;20077;-72
2022/06/29 03:19:38;;;;;;;11.93;9.80;;;21.60;95.20;;;;;;5001145;28;20030;-72
2022/06/29 03:22:04;;;;;;;11.93;9.50;;;21.60;95.40;;;;;;5002243;28;20034;-72
2022/06/29 03:24:30;;;;;;;13.00;9.57;;;21.60;95.70;;;;;;5001996;28;20022;-72
2022/06/29 03:26:56;;;;;;;12.30;9.70;;;21.50;95.30;;;;;;5002106;28;20026;-73
2022/06/29 03:29:22;;;;;;;12.73;10.23;;;21.50;95.20;;;;;;5002226;28;20034;-72
2022/06/29 03:31:47;;;;;;;11.37;9.17;;;21.60;95.60;;;;;;5002026;28;20084;-72
2022/06/29 03:34:13;;;;;;;12.07;9.40;;;21.60;95.80;;;;;;5000797;28;20030;-74
2022/06/29 03:36:39;;;;;;;17.13;11.82;;;21.50;95.70;;;;;;5002114;28;20034;-72
2022/06/29 03:39:05;;;;;;;12.03;9.90;;;21.50;95.60;;;;;;5002165;28;20022;-72
2022/06/29 03:41:30;;;;;;;11.57;9.47;;;21.50;95.30;;;;;;5002060;28;20057;-72
2022/06/29 03:43:56;;;;;;;12.13;9.87;;;21.50;95.40;;;;;;5001875;28;20085;-72
2022/06/29 03:46:22;;;;;;;12.50;10.23;;;21.50;95.60;;;;;;5002056;28;20052;-72
2022/06/29 03:48:48;;;;;;;13.43;10.83;;;21.40;95.40;;;;;;5001767;28;20022;-72
2022/06/29 03:51:13;;;;;;;12.50;10.07;;;21.40;95.40;;;;;;4999625;28;20076;-73
2022/06/29 03:53:39;;;;;;;13.87;11.00;;;21.40;95.60;;;;;;5002986;28;20038;-73
2022/06/29 03:56:05;;;;;;;13.30;9.73;;;21.40;95.80;;;;;;5005602;28;20379;-73
2022/06/29 03:58:31;;;;;;;13.05;11.23;;;21.50;96.10;;;;;;5005509;28;20018;-73
2022/06/29 04:00:57;;;;;;;12.57;9.73;;;21.40;96.00;;;;;;5005602;28;20045;-73
2022/06/29 04:03:22;;;;;;;14.40;10.50;;;21.40;96.10;;;;;;5005205;28;20081;-72
2022/06/29 04:05:48;;;;;;;11.20;9.27;;;21.40;96.00;;;;;;5005227;28;20030;-73
2022/06/29 04:08:14;;;;;;;13.13;10.13;;;21.40;95.80;;;;;;5005774;28;20034;-77
2022/06/29 04:10:40;;;;;;;12.97;9.83;;;21.40;95.90;;;;;;5005290;28;20324;-73
2022/06/29 04:13:05;;;;;;;13.40;10.40;;;21.40;95.90;;;;;;5003607;28;20026;-73
2022/06/29 04:15:31;;;;;;;11.07;8.70;;;21.30;96.00;;;;;;5005217;28;20023;-73
2022/06/29 04:17:57;;;;;;;14.10;10.80;;;21.30;96.00;;;;;;5004120;28;20318;-72
2022/06/29 04:23:07;;;;;;;12.95;10.38;;;21.30;96.20;;;;;;4984035;28;20429;-73
2022/06/29 04:25:33;;;;;;;14.60;11.53;;;21.30;96.20;;;;;;4982612;28;20030;-73
2022/06/29 04:27:59;;;;;;;14.30;10.80;;;21.30;96.40;;;;;;4985594;28;20035;-72
2022/06/29 04:30:24;;;;;;;15.53;10.30;;;21.30;96.50;;;;;;4978098;28;20052;-72
2022/06/29 04:32:50;;;;;;;12.10;10.27;;;21.20;96.30;;;;;;4984987;28;20022;-72
2022/06/29 04:35:16;;;;;;;12.05;9.85;;;21.30;96.20;;;;;;4983835;28;20033;-72
2022/06/29 04:37:42;;;;;;;12.50;10.50;;;21.20;96.20;;;;;;4981623;28;20213;-72
2022/06/29 04:40:08;;;;;;;10.63;9.53;;;21.20;96.50;;;;;;4979447;28;20029;-72
2022/06/29 04:42:34;;;;;;;;;;;21.20;96.60;;;;;;4982810;28;20030;-72
2022/06/29 04:45:00;;;;;;;12.88;9.73;;;21.20;96.80;;;;;;4978941;28;19949;-72
2022/06/29 04:47:25;;;;;;;10.63;9.00;;;21.30;97.00;;;;;;4981646;28;20030;-72
2022/06/29 04:49:51;;;;;;;10.93;9.50;;;21.20;96.70;;;;;;4978322;28;20073;-72
2022/06/29 04:52:17;;;;;;;13.13;10.90;;;21.20;96.70;;;;;;4984273;28;20109;-72
2022/06/29 04:54:43;;;;;;;10.13;9.10;;;21.30;97.20;;;;;;4976740;28;20216;-72
2022/06/29 04:57:08;;;;;;;11.67;9.90;;;21.20;96.70;;;;;;4985134;28;20042;-72
2022/06/29 04:59:35;;;;;;;12.70;9.55;;;21.20;96.70;;;;;;4983740;28;20031;-72
2022/06/29 05:02:01;;;;;;;11.93;9.73;;;21.20;97.20;;;;;;4983703;28;20034;-72
2022/06/29 05:04:26;;;;;;;13.80;10.20;;;21.30;97.60;;;;;;4981556;28;20042;-72
2022/06/29 05:06:52;;;;;;;14.73;8.93;;;21.30;96.80;;;;;;4983325;28;20042;-72
2022/06/29 05:09:18;;;;;;;12.10;9.67;;;21.20;96.80;;;;;;4977533;28;20069;-72
2022/06/29 05:11:43;;;;;;;12.80;10.07;;;21.30;97.00;;;;;;4964995;29;20038;-72
2022/06/29 05:14:10;;;;;;;12.27;9.70;;;21.20;96.60;;;;;;4969341;28;20042;-72
2022/06/29 05:16:36;;;;;;;12.10;9.20;;;21.30;97.00;;;;;;4984264;28;20257;-73
2022/06/29 05:19:02;;;;;;;13.00;8.37;;;21.20;97.00;;;;;;4982105;28;20018;-73
2022/06/29 05:21:27;;;;;;;13.65;10.45;;;21.30;96.80;;;;;;4983242;28;20336;-72
2022/06/29 05:23:53;;;;;;;11.43;8.67;;;21.30;97.40;;;;;;4987035;28;20031;-72
2022/06/29 05:26:19;;;;;;;11.73;8.97;;;21.40;97.50;;;;;;4976175;28;20284;-73
2022/06/29 05:28:45;;;;;;;13.48;9.30;;;21.40;97.80;;;;;;4962780;29;20027;-74
2022/06/29 05:31:11;;;;;;;10.93;8.70;;;21.40;96.90;;;;;;4982959;28;20058;-73
2022/06/29 05:33:37;;;;;;;10.53;7.80;;;21.40;96.80;;;;;;4982462;28;20325;-72
2022/06/29 05:36:07;;;;;;;10.27;8.37;;;21.40;96.60;;;;;;4983905;28;20023;-74
2022/06/29 05:38:32;;;;;;;9.23;8.07;;;21.40;96.60;;;;;;4965929;28;20361;-74
2022/06/29 05:41:00;;;;;;;9.57;8.40;;;21.40;96.60;;;;;;4982926;28;20345;-77
2022/06/29 05:43:27;;;;;;;11.25;8.02;;;21.40;96.80;;;;;;4973608;28;20074;-75
2022/06/29 05:45:53;;;;;;;9.98;8.35;;;21.40;96.50;;;;;;4965022;28;20030;-75
2022/06/29 05:48:19;;;;;;;10.82;7.32;;;21.50;96.70;;;;;;4996027;28;20034;-75
2022/06/29 05:50:45;;;;;;;10.60;7.97;;;21.50;96.70;;;;;;4983938;28;20042;-75
2022/06/29 05:53:11;;;;;;;11.27;8.07;;;21.50;96.80;;;;;;5001506;28;20192;-75
2022/06/29 05:55:36;;;;;;;9.70;8.07;;;21.50;96.70;;;;;;5002143;28;20026;-76
2022/06/29 05:58:02;;;;;;;9.40;7.93;;;21.50;96.60;;;;;;5003080;28;20025;-75
2022/06/29 06:00:28;;;;;;;10.20;7.67;;;21.60;96.70;;;;;;5002017;28;20185;-75
2022/06/29 06:02:53;;;;;;;8.63;7.70;;;21.50;96.70;;;;;;4990177;28;20038;-75
2022/06/29 06:05:19;;;;;;;11.57;7.33;;;21.50;96.40;;;;;;4982300;28;20269;-75
2022/06/29 06:07:45;;;;;;;12.83;8.43;;;21.60;96.40;;;;;;4977310;28;20030;-75
2022/06/29 06:10:11;;;;;;;10.97;7.93;;;21.50;96.30;;;;;;4983350;28;20051;-75
2022/06/29 06:12:37;;;;;;;11.83;7.57;;;21.50;96.40;;;;;;4983418;28;20285;-75
2022/06/29 06:15:03;;;;;;;7.32;6.53;;;21.50;96.40;;;;;;4978424;28;20257;-75
2022/06/29 06:17:29;;;;;;;9.48;7.20;;;21.60;96.90;;;;;;4976269;28;20038;-75
2022/06/29 06:19:55;;;;;;;11.40;7.73;;;21.60;97.40;;;;;;4983282;28;20034;-75
2022/06/29 06:22:21;;;;;;;10.15;7.95;;;21.60;97.00;;;;;;4982676;28;20349;-75
2022/06/29 06:24:47;;;;;;;11.35;7.60;;;21.60;97.20;;;;;;4981038;28;20037;-75
2022/06/29 06:27:14;;;;;;;9.70;7.20;;;21.70;97.00;;;;;;4998125;28;20241;-75
2022/06/29 06:29:39;;;;;;;11.75;8.25;;;21.70;96.50;;;;;;4983337;28;20047;-75
2022/06/29 06:32:06;;;;;;;8.77;7.57;;;21.70;96.60;;;;;;4998230;28;20300;-75
2022/06/29 06:34:32;;;;;;;11.60;7.28;;;21.70;96.50;;;;;;4982689;28;20030;-75
2022/06/29 06:36:59;;;;;;;11.40;8.00;;;21.70;96.30;;;;;;4982938;28;20355;-76
2022/06/29 06:39:25;;;;;;;8.93;8.02;;;21.70;96.50;;;;;;4997701;28;20302;-75
2022/06/29 06:41:51;;;;;;;11.73;7.68;;;21.60;96.40;;;;;;4997980;28;20050;-75
2022/06/29 06:44:17;;;;;;;10.73;8.23;;;21.60;96.30;;;;;;4997631;28;20054;-75
2022/06/29 06:46:48;;;;;;;9.73;7.33;;;21.60;96.40;;;;;;4997641;28;20202;-75
2022/06/29 06:49:20;;;;;;;10.23;7.50;;;21.60;97.00;;;;;;4966678;28;20031;-75
2022/06/29 06:51:45;;;;;;;8.90;7.32;;;21.60;97.10;;;;;;4980045;28;20026;-77
2022/06/29 06:54:11;;;;;;;10.63;7.33;;;21.60;97.20;;;;;;4967618;28;20054;-74
2022/06/29 06:56:37;;;;;;;9.80;7.80;;;21.60;96.90;;;;;;4983065;28;20046;-74
2022/06/29 06:59:03;;;;;;;12.03;6.73;;;21.60;96.60;;;;;;4982603;28;20053;-74
2022/06/29 07:01:28;;;;;;;10.40;8.10;;;21.60;96.60;;;;;;4981959;28;20047;-74
2022/06/29 07:03:55;;;;;;;9.80;7.17;;;21.50;96.80;;;;;;4999328;28;20073;-74
2022/06/29 07:06:21;;;;;;;8.43;6.70;;;21.50;96.80;;;;;;5002213;28;20042;-76
2022/06/29 07:08:46;;;;;;;8.33;7.43;;;21.50;96.70;;;;;;5001030;28;20049;-74
2022/06/29 07:11:13;;;;;;;10.07;7.40;;;21.50;97.00;;;;;;5000861;28;20098;-73
2022/06/29 07:13:38;;;;;;;11.35;8.00;;;21.60;97.50;;;;;;5000554;28;20273;-74
2022/06/29 07:16:05;;;;;;;15.83;9.43;;;21.60;97.50;;;;;;5000002;28;20065;-74
2022/06/29 07:18:31;;;;;;;10.85;8.00;;;21.70;97.80;;;;;;5000520;28;20026;-74
2022/06/29 07:20:57;;;;;;;;;;;21.60;97.50;;;;;;4999859;28;20038;-74
2022/06/29 07:23:23;;;;;;;8.70;6.93;;;21.70;97.30;;;;;;4981632;28;19969;-74
2022/06/29 07:25:48;;;;;;;8.43;7.37;;;21.70;97.00;;;;;;4981434;28;20093;-74
2022/06/29 07:28:14;;;;;;;8.67;7.13;;;21.70;97.10;;;;;;4984296;28;20269;-74
2022/06/29 07:30:40;;;;;;;8.93;7.93;;;21.80;97.80;;;;;;4969061;28;20038;-74
2022/06/29 07:33:09;;;;;;;9.38;7.72;;;21.90;97.50;;;;;;4984705;28;20027;-74
2022/06/29 07:35:35;;;;;;;14.60;7.53;;;21.90;97.40;;;;;;4985944;28;20141;-74
2022/06/29 07:38:01;;;;;;;;;;;22.00;97.50;;;;;;4985068;28;20027;-76
2022/06/29 07:40:27;;;;;;;9.48;6.50;;;22.10;97.50;;;;;;4986253;28;19936;-76
2022/06/29 07:42:53;;;;;;;10.43;8.15;;;22.20;97.10;;;;;;4985838;28;20042;-76
2022/06/29 07:45:19;;;;;;;9.73;7.10;;;22.20;96.90;;;;;;4972094;28;20039;-77
2022/06/29 07:47:45;;;;;;;10.37;8.40;;;22.30;96.40;;;;;;4966861;28;20066;-74
2022/06/29 07:50:11;;;;;;;9.85;7.90;;;22.30;96.80;;;;;;4967900;28;20254;-74
2022/06/29 07:52:39;;;;;;;9.45;7.35;;;22.40;97.60;;;;;;5004316;28;20030;-74
2022/06/29 07:55:05;;;;;;;9.05;7.65;;;22.50;97.90;;;;;;5005078;28;20022;-75
2022/06/29 07:57:31;;;;;;;7.88;6.95;;;22.50;97.90;;;;;;5004477;28;20073;-75
2022/06/29 07:59:57;;;;;;;9.00;7.50;;;22.50;97.30;;;;;;4988115;28;20019;-74
2022/06/29 08:02:22;;;;;;;8.60;7.13;;;22.60;96.70;;;;;;5005421;28;20053;-75
2022/06/29 08:04:48;;;;;;;7.53;6.57;;;22.60;96.50;;;;;;5003807;28;20034;-74
2022/06/29 08:07:14;;;;;;;9.67;6.83;;;22.70;96.70;;;;;;4979553;28;20035;-74
2022/06/29 08:09:39;;;;;;;9.33;6.87;;;22.70;96.60;;;;;;4964544;28;20030;-74
2022/06/29 08:12:08;;;;;;;7.70;6.90;;;22.80;96.70;;;;;;4977382;28;20022;-74
2022/06/29 08:14:34;;;;;;;6.90;6.15;;;22.80;96.70;;;;;;5003832;28;20019;-74
2022/06/29 08:16:59;;;;;;;7.20;6.50;;;22.80;95.60;;;;;;4991815;28;20130;-74
2022/06/29 08:19:25;;;;;;;7.43;6.10;;;22.80;95.10;;;;;;4982375;28;20027;-74
2022/06/29 08:21:51;;;;;;;8.47;6.93;;;22.90;95.40;;;;;;4983824;28;20049;-74
2022/06/29 08:24:16;;;;;;;8.70;6.37;;;23.00;96.30;;;;;;4985069;28;20046;-71
2022/06/29 08:26:42;;;;;;;7.47;6.77;;;23.00;94.60;;;;;;4985202;28;20075;-71
2022/06/29 08:29:08;;;;;;;7.73;6.93;;;23.10;94.70;;;;;;4985320;28;20203;-71
2022/06/29 08:31:34;;;;;;;8.60;6.97;;;23.10;94.90;;;;;;4985343;28;20337;-71
2022/06/29 08:34:02;;;;;;;10.20;6.32;;;23.20;95.20;;;;;;4984962;28;20286;-71
2022/06/29 08:36:28;;;;;;;11.65;7.93;;;23.20;95.00;;;;;;4985362;28;20026;-71
2022/06/29 08:38:54;;;;;;;9.57;6.65;;;23.20;95.50;;;;;;4993983;28;20030;-71
2022/06/29 08:41:20;;;;;;;7.37;6.20;;;23.30;94.10;;;;;;5004734;28;20029;-71
2022/06/29 08:43:45;;;;;;;7.07;5.68;;;23.40;94.00;;;;;;5003385;28;20026;-71
2022/06/29 08:46:13;;;;;;;6.23;5.63;;;23.50;93.70;;;;;;5003435;28;20081;-71
2022/06/29 08:48:38;;;;;;;11.90;7.03;;;23.50;93.80;;;;;;5004619;28;20065;-71
2022/06/29 08:51:04;;;;;;;9.20;5.87;;;23.50;94.00;;;;;;5004619;28;20059;-71
2022/06/29 08:53:30;;;;;;;10.93;6.50;;;23.60;93.50;;;;;;5001665;28;20312;-71
2022/06/29 08:55:55;;;;;;;7.93;6.10;;;23.60;93.80;;;;;;5003316;28;20074;-71
2022/06/29 08:58:23;;;;;;;7.23;6.50;;;23.60;94.10;;;;;;4986600;28;20123;-71
2022/06/29 09:00:49;;;;;;;7.03;5.22;;;23.70;94.20;;;;;;4985009;28;20027;-72
2022/06/29 09:03:18;;;;;;;7.60;5.65;;;23.70;93.60;;;;;;4983505;28;20034;-72
2022/06/29 09:05:48;;;;;;;8.70;6.40;;;23.80;92.50;;;;;;5002994;28;20122;-71
2022/06/29 09:08:15;;;;;;;7.55;5.32;;;23.80;92.80;;;;;;5004084;28;20030;-71
2022/06/29 09:10:41;;;;;;;6.00;5.32;;;23.80;92.90;;;;;;5004285;28;20391;-72
2022/06/29 09:13:08;;;;;;;10.13;5.07;;;23.80;92.50;;;;;;5003659;28;20027;-71
2022/06/29 09:15:39;;;;;;;7.55;5.60;;;23.80;92.50;;;;;;5002608;28;20034;-71
2022/06/29 09:18:25;;;;;;;11.50;6.05;;;23.80;92.60;;;;;;5002814;28;20026;-70
2022/06/29 09:20:55;;;;;;;6.78;5.90;;;23.90;93.40;;;;;;5004005;28;20025;-71
2022/06/29 09:23:21;;;;;;;6.68;5.75;;;23.90;93.40;;;;;;5002594;28;20294;-71
2022/06/29 09:25:47;;;;;;;7.38;5.90;;;23.80;92.90;;;;;;5003997;28;20101;-72
2022/06/29 09:28:23;;;;;;;8.70;5.82;;;23.80;93.60;;;;;;5002835;28;20038;-71
2022/06/29 09:30:49;;;;;;;7.13;5.90;;;23.80;94.10;;;;;;4994040;28;20062;-71
2022/06/29 09:33:15;;;;;;;11.48;6.57;;;23.90;93.10;;;;;;4981214;28;20326;-71
2022/06/29 09:35:41;;;;;;;7.55;5.25;;;23.80;92.90;;;;;;4984152;28;20029;-71
2022/06/29 09:38:24;;;;;;;10.85;7.03;;;23.90;92.40;;;;;;4983983;28;20082;-71
2022/06/29 09:41:13;;;;;;;11.10;6.32;;;23.80;92.40;;;;;;5000201;28;20050;-75
2022/06/29 09:43:40;;;;;;;6.05;5.45;;;23.80;93.00;;;;;;5002257;28;20033;-75
2022/06/29 09:46:07;;;;;;;14.77;10.40;;;23.70;92.70;;;;;;5002332;28;20089;-75
2022/06/29 09:48:35;;;;;;;10.30;8.82;;;23.70;92.80;;;;;;4984008;28;20022;-75
2022/06/29 09:51:01;;;;;;;7.18;6.20;;;23.70;92.80;;;;;;4966134;28;20026;-75
2022/06/29 09:53:37;;;;;;;9.20;6.40;;;23.70;92.70;;;;;;4986494;28;20257;-75
2022/06/29 09:56:05;;;;;;;6.22;5.55;;;23.70;92.70;;;;;;5001886;28;20105;-75
2022/06/29 09:58:44;;;;;;;10.38;6.38;;;23.70;92.60;;;;;;5001337;28;20336;-75
2022/06/29 10:03:55;;;;;;;8.05;5.65;;;23.70;92.70;;;;;;4988297;28;20348;-75
2022/06/29 10:06:21;;;;;;;;;;;23.70;92.40;;;;;;5001462;28;20049;-75
2022/06/29 10:08:46;;;;;;;7.00;5.97;;;23.70;92.70;;;;;;5002024;28;19910;-75
2022/06/29 10:14:43;;;;;;;8.88;6.30;;;23.70;93.10;;;;;;5001656;28;20232;-75
2022/06/29 10:17:18;;;;;;;9.82;7.43;;;23.70;93.90;;;;;;4996351;28;20309;-75
2022/06/29 10:20:09;;;;;;;7.82;6.68;;;23.80;93.50;;;;;;4982601;28;20077;-74
2022/06/29 10:22:34;;;;;;;11.60;7.32;;;23.90;93.40;;;;;;4983446;28;20026;-75
2022/06/29 10:25:09;;;;;;;18.17;7.50;;;23.90;93.40;;;;;;4982244;28;20229;-74
2022/06/29 10:27:34;;;;;;;9.18;6.95;;;24.00;93.90;;;;;;4982294;28;20272;-75
2022/06/29 10:30:20;;;;;;;7.63;6.07;;;24.10;94.10;;;;;;4982256;28;20217;-74
2022/06/29 10:32:46;;;;;;;9.05;6.57;;;24.10;93.30;;;;;;4982560;28;20060;-75
2022/06/29 10:35:12;;;;;;;7.68;6.90;;;24.30;93.50;;;;;;4977860;28;20023;-74
2022/06/29 10:38:07;;;;;;;10.73;7.07;;;24.20;93.10;;;;;;4974756;28;20285;-74
2022/06/29 10:40:33;;;;;;;11.65;7.45;;;24.20;93.00;;;;;;4954961;28;20057;-75
2022/06/29 10:43:07;;;;;;;10.50;7.83;;;24.20;93.50;;;;;;4975293;28;20396;-74
2022/06/29 10:45:54;;;;;;;10.10;7.65;;;24.30;93.60;;;;;;4951649;28;20053;-75
2022/06/29 10:48:20;;;;;;;9.50;6.97;;;24.40;93.30;;;;;;4981967;28;20027;-74
2022/06/29 10:50:46;;;;;;;8.30;6.80;;;24.50;93.30;;;;;;4982132;28;20098;-74
2022/06/29 10:53:17;;;;;;;10.55;6.18;;;24.50;92.30;;;;;;4982975;28;20233;-75
2022/06/29 10:55:51;;;;;;;9.95;6.68;;;24.60;92.60;;;;;;4993132;28;20036;-75
2022/06/29 10:58:17;;;;;;;13.45;7.78;;;24.60;92.70;;;;;;5001579;28;20029;-75
2022/06/29 11:00:50;;;;;;;9.60;6.30;;;24.80;93.00;;;;;;5001407;28;20018;-75
2022/06/29 11:03:20;;;;;;;12.73;6.55;;;24.90;93.40;;;;;;5005219;28;20030;-75
2022/06/29 11:14:04;;;;;;;8.93;6.35;;;25.10;93.90;;;;;;5004920;28;20225;-74
2022/06/29 11:16:34;;;;;;;;;;;25.10;93.20;;;;;;5005574;28;20037;-74
2022/06/29 11:19:00;;;;;;;7.18;6.22;;;25.10;93.60;;;;;;4987844;28;20149;-75
2022/06/29 11:21:28;;;;;;;10.90;6.70;;;24.90;91.90;;;;;;4997851;28;20061;-75
2022/06/29 11:24:03;;;;;;;7.30;5.50;;;24.90;92.30;;;;;;4992586;28;20072;-74
2022/06/29 11:26:32;;;;;;;7.93;6.40;;;24.80;91.80;;;;;;5005057;28;20130;-75
2022/06/29 11:28:59;;;;;;;8.38;5.75;;;24.70;91.90;;;;;;5004959;28;20316;-74
2022/06/29 11:31:25;;;;;;;8.27;6.72;;;24.80;92.90;;;;;;5005043;28;20376;-75
2022/06/29 11:33:55;;;;;;;7.25;5.68;;;24.80;93.90;;;;;;5003740;28;20106;-75
2022/06/29 11:36:28;;;;;;;10.18;6.32;;;24.90;93.90;;;;;;5005057;28;20225;-75
2022/06/29 11:39:03;;;;;;;9.43;6.15;;;25.00;93.10;;;;;;5004555;28;20022;-74
2022/06/29 11:44:24;;;;;;;11.38;5.35;;;25.00;92.30;;;;;;5005769;28;20072;-75
2022/06/29 11:46:51;;;;;;;7.18;5.80;;;25.10;92.80;;;;;;5004935;28;20038;-74
2022/06/29 11:52:04;;;;;;;6.20;5.60;;;25.00;92.30;;;;;;5005926;28;20033;-74
2022/06/29 11:54:40;;;;;;;7.10;5.97;;;25.00;92.30;;;;;;4996544;28;20078;-74
2022/06/29 11:57:12;;;;;;;6.50;5.45;;;24.90;91.80;;;;;;5001641;28;20085;-74
2022/06/29 11:59:39;;;;;;;9.77;5.43;;;24.90;92.30;;;;;;5004564;28;20023;-74
2022/06/29 12:02:05;;;;;;;7.45;5.13;;;24.90;92.40;;;;;;5004550;28;20014;-74
2022/06/29 12:04:32;;;;;;;5.75;4.95;;;25.00;92.20;;;;;;5005561;28;20026;-74
2022/06/29 12:07:06;;;;;;;7.75;5.65;;;25.10;93.70;;;;;;5004521;28;20022;-74
2022/06/29 12:09:32;;;;;;;6.07;4.40;;;25.30;94.10;;;;;;5004660;28;20025;-73
2022/06/29 12:11:58;;;;;;;5.38;4.63;;;25.50;91.10;;;;;;5003183;28;20018;-75
2022/06/29 12:14:23;;;;;;;5.63;4.55;;;25.70;92.20;;;;;;5004571;28;20037;-75
2022/06/29 12:16:49;;;;;;;6.25;4.57;;;25.90;91.70;;;;;;5004215;28;20034;-73
2022/06/29 12:19:15;;;;;;;6.55;4.75;;;26.00;90.20;;;;;;4977105;28;20070;-73
2022/06/29 12:21:41;;;;;;;6.00;4.15;;;26.10;90.70;;;;;;4975961;28;20217;-74
2022/06/29 12:24:06;;;;;;;11.20;4.43;;;26.10;89.30;;;;;;4975653;28;20425;-74
2022/06/29 12:26:32;;;;;;;5.28;4.35;;;26.20;89.70;;;;;;4967931;28;20250;-74
2022/06/29 12:28:58;;;;;;;7.03;4.45;;;26.20;88.60;;;;;;4985640;28;20118;-74
2022/06/29 12:31:23;;;;;;;7.68;4.78;;;26.50;90.30;;;;;;4984389;28;20038;-74
2022/06/29 12:33:49;;;;;;;7.15;4.53;;;26.60;87.70;;;;;;4985368;28;20062;-74
2022/06/29 12:36:15;;;;;;;7.10;4.13;;;26.80;90.80;;;;;;4985645;28;20023;-74
2022/06/29 12:38:41;;;;;;;5.65;4.00;;;27.00;88.10;;;;;;4985695;28;20034;-79
2022/06/29 12:41:07;;;;;;;6.20;3.97;;;27.20;89.40;;;;;;4987241;28;20019;-81
2022/06/29 12:43:33;;;;;;;9.13;6.43;;;27.40;86.80;;;;;;4969273;29;20037;-82
2022/06/29 12:45:59;;;;;;;7.10;4.65;;;27.50;81.40;;;;;;4969887;28;20344;-83
2022/06/29 12:48:25;;;;;;;6.47;4.32;;;27.60;83.30;;;;;;4952688;29;20023;-81
2022/06/29 12:50:51;;;;;;;6.22;4.05;;;27.60;82.80;;;;;;4952467;29;20090;-82
2022/06/29 12:53:17;;;;;;;8.45;3.80;;;27.60;82.30;;;;;;4968760;29;20082;-82
2022/06/29 12:55:43;;;;;;;;;;;27.70;83.00;;;;;;4953370;28;20307;-83
2022/06/29 12:58:09;;;;;;;7.35;3.88;;;27.60;80.00;;;;;;5008105;28;19973;-84
2022/06/29 13:00:35;;;;;;;7.93;4.45;;;27.60;79.40;;;;;;5007224;28;20042;-82
2022/06/29 13:03:01;;;;;;;;;;;27.50;79.90;;;;;;4988351;28;20038;-82
2022/06/29 13:05:27;;;;;;;8.30;4.45;;;27.40;79.10;;;;;;4977884;28;19910;-82
2022/06/29 13:07:53;;;;;;;5.95;3.92;;;27.30;80.20;;;;;;4987532;28;20035;-82